Time;durP1;ratioP1;P1;durP2;ratioP2;P2;SDS_P1;SDS_P2;PMS_P1;PMS_P2;Temp;Humidity;BMP_temperature;BMP_pressure;BME280_temperature;BME280_humidity;BME280_pressure;Samples;Min_cycle;Max_cycle;Signal;HPM_P1;HPM_P2
2023/01/07 00:01:43;;;;;;;16.57;12.87;;;;;;;6.19;54.91;95647.78;5006051;28;20269;-68
2023/01/07 00:04:14;;;;;;;15.90;12.47;;;;;;;6.11;55.39;95634.44;5008174;28;20215;-68
2023/01/07 00:06:42;;;;;;;17.23;12.67;;;;;;;6.10;55.08;95632.78;5016597;28;20274;-67
2023/01/07 00:09:15;;;;;;;15.70;11.87;;;;;;;6.23;55.36;95627.50;5016491;28;20227;-68
2023/01/07 00:11:40;;;;;;;16.30;12.10;;;;;;;6.23;54.82;95637.09;4999116;28;20211;-68
2023/01/07 00:14:08;;;;;;;18.53;12.37;;;;;;;6.06;55.46;95640.94;5020877;28;20234;-68
2023/01/07 00:16:35;;;;;;;19.10;12.17;;;;;;;5.79;55.96;95643.66;5004500;28;20220;-67
2023/01/07 00:19:03;;;;;;;15.90;12.00;;;;;;;5.93;55.87;95640.91;5002373;28;20281;-67
2023/01/07 00:21:29;;;;;;;15.33;11.50;;;;;;;5.97;55.95;95650.25;5001752;28;20178;-67
2023/01/07 00:23:58;;;;;;;13.67;11.67;;;;;;;5.79;56.18;95649.72;5001088;28;20226;-67
2023/01/07 00:26:26;;;;;;;14.30;10.77;;;;;;;5.80;56.11;95648.78;4997221;28;20227;-67
2023/01/07 00:28:52;;;;;;;14.03;9.87;;;;;;;5.86;56.05;95643.13;5005748;28;20222;-67
2023/01/07 00:31:20;;;;;;;13.87;10.43;;;;;;;5.87;56.21;95642.19;5003838;28;20222;-68
2023/01/07 00:36:20;;;;;;;12.23;9.77;;;;;;;5.66;56.63;95638.47;4987815;28;20220;-68
2023/01/07 00:38:46;;;;;;;12.30;9.83;;;;;;;5.82;56.47;95638.22;4998224;28;20220;-67
2023/01/07 00:41:11;;;;;;;11.63;9.67;;;;;;;5.91;55.95;95635.00;4990028;28;20247;-67
2023/01/07 00:43:37;;;;;;;13.90;9.67;;;;;;;5.82;56.44;95640.84;5005766;28;20232;-68
2023/01/07 00:46:02;;;;;;;13.33;9.67;;;;;;;5.71;56.37;95645.03;5009259;28;20210;-68
2023/01/07 00:48:28;;;;;;;14.73;10.17;;;;;;;5.84;56.43;95641.56;5014174;28;20190;-66
2023/01/07 00:50:53;;;;;;;10.87;9.30;;;;;;;5.69;56.67;95654.75;5006642;28;20219;-67
2023/01/07 00:53:20;;;;;;;12.93;9.33;;;;;;;5.59;56.89;95652.91;5008474;28;20308;-67
2023/01/07 00:55:47;;;;;;;12.43;9.00;;;;;;;5.61;57.12;95657.03;5006865;28;20429;-67
2023/01/07 00:58:15;;;;;;;13.10;9.37;;;;;;;5.66;56.44;95649.72;5016014;28;20234;-67
2023/01/07 01:00:40;;;;;;;13.53;8.60;;;;;;;5.75;56.36;95654.31;5005948;28;20194;-68
2023/01/07 01:03:07;;;;;;;12.67;8.73;;;;;;;5.78;56.39;95657.66;5007402;28;20230;-67
2023/01/07 01:05:33;;;;;;;11.73;8.23;;;;;;;5.77;56.78;95656.00;5023395;28;20235;-67
2023/01/07 01:07:58;;;;;;;10.60;8.47;;;;;;;5.65;57.06;95657.69;5020668;28;20223;-67
2023/01/07 01:10:24;;;;;;;13.20;8.90;;;;;;;5.62;56.82;95673.56;5008243;28;20223;-68
2023/01/07 01:12:49;;;;;;;10.20;8.00;;;;;;;5.49;56.87;95673.56;4987185;28;20234;-68
2023/01/07 01:15:16;;;;;;;9.83;8.20;;;;;;;5.57;57.05;95673.84;4998850;28;20322;-68
2023/01/07 01:17:41;;;;;;;12.10;8.97;;;;;;;5.62;56.68;95673.56;4986070;28;20220;-70
2023/01/07 01:20:10;;;;;;;13.63;8.33;;;;;;;5.53;56.72;95670.63;5002004;28;20223;-67
2023/01/07 01:22:36;;;;;;;10.10;8.13;;;;;;;5.55;56.88;95673.13;4983462;28;20243;-68
2023/01/07 01:25:02;;;;;;;9.63;8.13;;;;;;;5.46;57.41;95666.78;4987543;28;20195;-67
2023/01/07 01:27:31;;;;;;;14.53;9.20;;;;;;;5.35;57.70;95669.28;5013176;28;20217;-68
2023/01/07 01:29:57;;;;;;;11.70;7.80;;;;;;;5.41;57.30;95670.63;5006605;28;20354;-67
2023/01/07 01:32:23;;;;;;;14.33;9.00;;;;;;;5.36;57.05;95670.94;5005366;28;20249;-67
2023/01/07 01:34:48;;;;;;;13.37;8.73;;;;;;;5.26;57.44;95660.28;5001760;28;20254;-67
2023/01/07 01:37:13;;;;;;;11.17;8.43;;;;;;;5.18;57.87;95657.34;5003036;28;20214;-68
2023/01/07 01:39:39;;;;;;;11.03;8.23;;;;;;;5.27;57.43;95659.38;5000600;28;20195;-67
2023/01/07 01:42:04;;;;;;;9.77;7.93;;;;;;;5.30;57.74;95664.38;4999425;28;20222;-68
2023/01/07 01:44:52;;;;;;;13.43;8.77;;;;;;;5.17;58.01;95653.09;5006265;28;20330;-67
2023/01/07 01:47:29;;;;;;;12.80;8.10;;;;;;;5.29;56.99;95661.84;5018328;28;20223;-67
2023/01/07 01:50:00;;;;;;;10.53;8.07;;;;;;;5.07;58.25;95662.47;5024494;28;20325;-67
2023/01/07 01:52:34;;;;;;;11.83;8.13;;;;;;;5.23;58.61;95662.28;5003443;28;20230;-67
2023/01/07 01:55:02;;;;;;;12.87;8.47;;;;;;;5.26;58.10;95649.84;4989368;28;20194;-67
2023/01/07 01:57:32;;;;;;;10.07;7.83;;;;;;;5.34;57.39;95658.94;4986277;28;20228;-67
2023/01/07 01:59:58;;;;;;;14.07;8.60;;;;;;;5.39;57.18;95649.84;4985437;28;20220;-68
2023/01/07 02:02:31;;;;;;;12.77;8.20;;;;;;;5.41;57.68;95642.78;5002214;28;20215;-67
2023/01/07 02:04:57;;;;;;;11.60;8.40;;;;;;;5.46;57.05;95652.91;5008345;28;20357;-67
2023/01/07 02:07:23;;;;;;;11.67;8.10;;;;;;;5.36;56.70;95644.84;5011137;28;20305;-67
2023/01/07 02:10:00;;;;;;;10.80;8.70;;;;;;;5.40;56.45;95648.94;5007731;28;20210;-68
2023/01/07 02:12:25;;;;;;;10.07;7.50;;;;;;;5.29;56.73;95636.63;5003993;28;20199;-67
2023/01/07 02:15:06;;;;;;;10.80;7.63;;;;;;;5.29;56.68;95644.44;5012100;28;20279;-68
2023/01/07 02:18:08;;;;;;;9.77;7.17;;;;;;;5.26;56.83;95651.63;5017172;28;20223;-68
2023/01/07 02:20:40;;;;;;;12.03;7.73;;;;;;;5.35;57.33;95644.97;5009717;28;20621;-68
2023/01/07 02:23:11;;;;;;;11.20;7.63;;;;;;;5.09;56.98;95632.75;5010216;28;20230;-67
2023/01/07 02:26:05;;;;;;;9.33;7.63;;;;;;;5.07;57.43;95644.22;5014289;28;20242;-67
2023/01/07 02:28:45;;;;;;;10.00;7.73;;;;;;;5.15;57.53;95643.69;5001990;28;20222;-68
2023/01/07 02:31:41;;;;;;;9.60;7.00;;;;;;;5.26;56.70;95647.25;4991036;28;20218;-68
2023/01/07 02:34:18;;;;;;;10.40;7.87;;;;;;;5.18;57.81;95639.09;5020721;28;20195;-67
2023/01/07 02:36:49;;;;;;;7.70;6.77;;;;;;;5.18;57.25;95640.88;5007759;28;20190;-68
2023/01/07 02:39:37;;;;;;;9.63;7.53;;;;;;;5.17;57.69;95640.06;5004447;28;20242;-67
2023/01/07 02:42:02;;;;;;;9.40;7.23;;;;;;;5.06;57.39;95624.31;5016551;28;20270;-67
2023/01/07 02:44:40;;;;;;;11.03;6.90;;;;;;;5.07;57.39;95641.59;5000462;28;20228;-67
2023/01/07 02:47:05;;;;;;;9.33;7.50;;;;;;;4.86;58.17;95621.28;5006138;28;20245;-67
2023/01/07 02:49:31;;;;;;;11.57;7.10;;;;;;;4.97;58.39;95645.75;5002342;28;20224;-67
2023/01/07 02:52:27;;;;;;;11.43;7.90;;;;;;;4.97;58.41;95638.81;4988410;28;20271;-67
2023/01/07 02:54:56;;;;;;;9.67;7.60;;;;;;;5.00;57.86;95635.16;5005197;28;20196;-67
2023/01/07 02:58:03;;;;;;;11.93;7.50;;;;;;;5.07;58.25;95642.44;5011808;28;20261;-67
2023/01/07 03:00:52;;;;;;;11.50;7.87;;;;;;;4.97;58.17;95640.53;4947835;29;20256;-67
2023/01/07 03:03:26;;;;;;;10.63;7.50;;;;;;;5.02;58.02;95636.69;4947737;28;20233;-67
2023/01/07 03:06:23;;;;;;;11.23;8.20;;;;;;;4.95;58.18;95637.22;4935440;28;20229;-66
2023/01/07 03:09:09;;;;;;;10.83;7.80;;;;;;;4.89;58.38;95635.84;4933539;29;20229;-69
2023/01/07 03:12:22;;;;;;;12.33;8.40;;;;;;;4.96;58.17;95644.94;4931183;29;20233;-67
2023/01/07 03:14:56;;;;;;;8.90;6.80;;;;;;;4.90;58.17;95649.72;4936573;29;20324;-68
2023/01/07 03:17:28;;;;;;;12.03;7.37;;;;;;;4.97;58.34;95645.75;4927669;29;20236;-68
2023/01/07 03:19:59;;;;;;;11.60;7.93;;;;;;;4.73;58.48;95643.88;4960629;28;20229;-69
2023/01/07 03:22:27;;;;;;;12.30;7.30;;;;;;;4.84;58.95;95640.56;4932894;28;20224;-68
2023/01/07 03:24:55;;;;;;;9.90;6.93;;;;;;;4.79;58.61;95635.63;4931377;29;20196;-67
2023/01/07 03:27:24;;;;;;;11.57;7.10;;;;;;;4.73;58.55;95638.66;4933376;28;20196;-67
2023/01/07 03:29:51;;;;;;;9.03;7.00;;;;;;;4.81;58.37;95644.19;4932853;29;20243;-67
2023/01/07 03:32:26;;;;;;;11.10;7.17;;;;;;;4.77;58.62;95640.09;4933822;28;20244;-67
2023/01/07 03:34:52;;;;;;;10.87;7.23;;;;;;;4.70;59.21;95638.81;4992127;28;20261;-67
2023/01/07 03:37:22;;;;;;;10.20;7.43;;;;;;;4.78;58.76;95654.78;5009108;28;20226;-68
2023/01/07 03:39:48;;;;;;;11.40;6.77;;;;;;;4.70;58.64;95646.66;5002884;28;20214;-67
2023/01/07 03:45:02;;;;;;;8.93;7.50;;;;;;;4.67;59.22;95644.25;5000137;28;20229;-67
2023/01/07 03:47:28;;;;;;;12.07;8.03;;;;;;;4.74;58.79;95648.13;5005767;28;20222;-66
2023/01/07 03:49:53;;;;;;;9.43;6.30;;;;;;;4.79;58.70;95638.25;5007189;28;20224;-67
2023/01/07 03:52:19;;;;;;;12.23;6.93;;;;;;;4.78;58.91;95640.94;5010959;28;20223;-67
2023/01/07 03:54:44;;;;;;;8.67;7.10;;;;;;;4.72;58.88;95641.34;5020052;28;20196;-67
2023/01/07 03:57:10;;;;;;;12.43;7.60;;;;;;;4.70;58.90;95641.44;5007363;28;20324;-67
2023/01/07 03:59:35;;;;;;;10.20;7.30;;;;;;;4.63;58.85;95661.84;5017016;28;20229;-67
2023/01/07 04:02:01;;;;;;;12.83;7.73;;;;;;;4.63;59.24;95655.81;5022514;28;20223;-66
2023/01/07 04:04:26;;;;;;;12.47;7.40;;;;;;;4.77;58.81;95660.13;5021389;28;20239;-66
2023/01/07 04:06:52;;;;;;;11.03;7.30;;;;;;;4.78;58.23;95661.78;5002517;28;20190;-66
2023/01/07 04:09:17;;;;;;;10.17;8.03;;;;;;;4.74;58.50;95676.78;5017210;28;20201;-66
2023/01/07 04:11:44;;;;;;;10.83;7.93;;;;;;;4.66;58.75;95673.00;5004645;28;20250;-67
2023/01/07 04:14:09;;;;;;;11.60;8.30;;;;;;;4.64;58.79;95670.50;5005538;28;20331;-66
2023/01/07 04:16:35;;;;;;;10.20;7.37;;;;;;;4.59;58.81;95667.34;4986060;28;20338;-67
2023/01/07 04:19:02;;;;;;;9.27;6.63;;;;;;;4.58;58.75;95676.94;4995490;28;20215;-67
2023/01/07 04:21:27;;;;;;;10.93;7.73;;;;;;;4.66;58.50;95676.44;4999483;28;20187;-67
2023/01/07 04:23:52;;;;;;;9.53;6.53;;;;;;;4.61;58.27;95670.69;5005017;28;20273;-67
2023/01/07 04:26:18;;;;;;;10.07;7.83;;;;;;;4.75;58.83;95673.22;5025243;28;20223;-67
2023/01/07 04:28:43;;;;;;;11.47;8.70;;;;;;;4.80;58.61;95673.78;5007838;28;20231;-68
2023/01/07 04:31:09;;;;;;;10.03;7.73;;;;;;;4.73;58.44;95677.72;5018689;28;20309;-67
2023/01/07 04:33:34;;;;;;;12.30;8.87;;;;;;;4.44;59.35;95684.81;5005110;28;20191;-67
2023/01/07 04:36:00;;;;;;;10.73;8.57;;;;;;;4.56;58.96;95684.00;5011053;28;20309;-67
2023/01/07 04:38:26;;;;;;;10.50;7.70;;;;;;;4.66;58.57;95678.22;5006077;28;20222;-68
2023/01/07 04:40:51;;;;;;;11.97;7.57;;;;;;;4.68;58.88;95676.34;5023146;28;20239;-67
2023/01/07 04:43:17;;;;;;;11.90;6.97;;;;;;;4.77;58.58;95673.16;5007559;28;20223;-67
2023/01/07 04:45:45;;;;;;;9.40;5.90;;;;;;;4.86;58.29;95689.03;5012378;28;20281;-67
2023/01/07 04:48:11;;;;;;;8.00;5.67;;;;;;;4.82;57.90;95689.31;5017822;28;20227;-67
2023/01/07 04:50:36;;;;;;;11.47;7.47;;;;;;;4.85;57.97;95679.53;5029405;28;20276;-68
2023/01/07 04:53:02;;;;;;;11.67;7.20;;;;;;;4.84;58.37;95677.84;5020562;28;20243;-68
2023/01/07 04:55:27;;;;;;;11.63;8.07;;;;;;;4.84;58.50;95683.06;5017000;28;20226;-67
2023/01/07 04:57:53;;;;;;;10.47;8.13;;;;;;;4.83;58.08;95686.59;5007743;28;20265;-67
2023/01/07 05:00:18;;;;;;;9.57;7.40;;;;;;;4.86;58.52;95685.56;5009218;28;20199;-67
2023/01/07 05:02:44;;;;;;;11.90;8.50;;;;;;;4.71;58.73;95677.00;5001658;28;20247;-67
2023/01/07 05:05:09;;;;;;;11.10;8.03;;;;;;;4.63;58.62;95685.28;4987524;28;20350;-66
2023/01/07 05:07:35;;;;;;;11.60;7.47;;;;;;;4.61;58.63;95681.94;4999917;28;20380;-67
2023/01/07 05:10:00;;;;;;;13.90;9.20;;;;;;;4.53;58.84;95686.00;5003087;28;20183;-68
2023/01/07 05:12:26;;;;;;;13.83;8.93;;;;;;;4.52;59.21;95689.53;5003186;28;20212;-67
2023/01/07 05:14:51;;;;;;;10.33;8.23;;;;;;;4.58;59.33;95686.53;5012677;28;20238;-68
2023/01/07 05:17:17;;;;;;;10.87;8.37;;;;;;;4.57;59.06;95695.25;5008305;28;20238;-68
2023/01/07 05:19:42;;;;;;;16.00;8.70;;;;;;;4.60;59.04;95700.31;5012099;28;20225;-67
2023/01/07 05:22:07;;;;;;;13.80;8.77;;;;;;;4.54;59.33;95688.47;4999628;28;20194;-68
2023/01/07 05:24:33;;;;;;;16.30;8.80;;;;;;;4.47;59.67;95696.81;5006872;28;20278;-67
2023/01/07 05:26:58;;;;;;;12.63;9.17;;;;;;;4.46;59.34;95695.94;5024416;28;20235;-67
2023/01/07 05:29:24;;;;;;;17.67;9.27;;;;;;;4.24;60.19;95698.25;5007096;28;20273;-67
2023/01/07 05:31:49;;;;;;;12.87;7.97;;;;;;;4.46;59.83;95697.72;5010458;28;20234;-67
2023/01/07 05:34:15;;;;;;;13.77;9.20;;;;;;;4.42;60.04;95703.13;5006096;28;20313;-67
2023/01/07 05:36:40;;;;;;;16.63;10.20;;;;;;;4.46;59.94;95701.16;5006383;28;20218;-68
2023/01/07 05:39:05;;;;;;;15.47;9.70;;;;;;;4.47;59.71;95704.63;5010504;28;20227;-68
2023/01/07 05:41:31;;;;;;;20.17;10.67;;;;;;;4.28;60.05;95700.56;5003851;28;20259;-68
2023/01/07 05:43:56;;;;;;;17.03;10.83;;;;;;;4.39;59.82;95707.72;4993434;28;20238;-68
2023/01/07 05:46:22;;;;;;;19.60;10.43;;;;;;;4.27;60.18;95698.88;4988425;28;20227;-68
2023/01/07 05:48:47;;;;;;;16.17;10.67;;;;;;;4.52;59.42;95707.78;4984084;28;20191;-68
2023/01/07 05:51:12;;;;;;;19.90;10.03;;;;;;;4.50;59.41;95704.41;4990844;28;20287;-68
2023/01/07 05:53:38;;;;;;;16.27;10.07;;;;;;;4.45;59.63;95707.31;4986552;28;20225;-68
2023/01/07 05:56:04;;;;;;;20.63;10.93;;;;;;;4.41;59.30;95704.06;4984639;28;20227;-68
2023/01/07 05:58:29;;;;;;;19.53;10.33;;;;;;;4.37;59.67;95705.19;4982632;28;20252;-68
2023/01/07 06:00:55;;;;;;;15.20;9.23;;;;;;;4.29;59.65;95702.22;5008738;28;20195;-68
2023/01/07 06:03:20;;;;;;;15.90;9.93;;;;;;;4.14;60.15;95713.59;4989884;28;20176;-68
2023/01/07 06:05:47;;;;;;;19.60;10.50;;;;;;;4.24;60.06;95706.88;4987945;28;20228;-68
2023/01/07 06:08:13;;;;;;;15.30;9.57;;;;;;;4.29;60.26;95711.81;4989385;28;20230;-68
2023/01/07 06:10:39;;;;;;;19.87;10.23;;;;;;;4.22;60.34;95711.34;4992124;28;20226;-68
2023/01/07 06:13:04;;;;;;;15.97;9.20;;;;;;;4.29;60.37;95711.81;5005444;28;20222;-68
2023/01/07 06:15:30;;;;;;;14.23;9.10;;;;;;;4.32;59.97;95707.25;5004265;28;20281;-67
2023/01/07 06:17:55;;;;;;;18.43;9.83;;;;;;;4.41;59.51;95711.03;5011720;28;20215;-68
2023/01/07 06:20:21;;;;;;;12.90;8.87;;;;;;;4.39;60.20;95718.94;5001979;28;20249;-68
2023/01/07 06:22:47;;;;;;;15.30;9.07;;;;;;;4.46;60.09;95718.56;4998302;28;20295;-68
2023/01/07 06:25:12;;;;;;;13.87;10.13;;;;;;;4.54;59.34;95716.28;4980368;28;20226;-68
2023/01/07 06:27:39;;;;;;;16.23;11.30;;;;;;;4.58;59.68;95723.00;5000751;28;20183;-68
2023/01/07 06:30:06;;;;;;;14.73;11.03;;;;;;;4.70;58.75;95716.97;5003302;28;20223;-68
2023/01/07 06:32:36;;;;;;;16.67;12.27;;;;;;;4.63;59.25;95713.13;5010371;28;20251;-68
2023/01/07 06:35:01;;;;;;;16.00;11.03;;;;;;;4.74;58.91;95723.69;5028097;28;20230;-68
2023/01/07 06:37:27;;;;;;;17.03;11.70;;;;;;;4.67;59.17;95716.34;5009546;28;20219;-68
2023/01/07 06:39:52;;;;;;;12.70;10.83;;;;;;;4.69;58.79;95717.94;5008477;28;20198;-68
2023/01/07 06:42:18;;;;;;;20.10;11.80;;;;;;;4.66;59.13;95717.31;5010410;28;20217;-68
2023/01/07 06:44:43;;;;;;;18.73;11.80;;;;;;;4.72;59.56;95720.34;5006851;28;20314;-68
2023/01/07 06:47:08;;;;;;;16.83;11.80;;;;;;;4.90;59.35;95718.31;5008403;28;20232;-68
2023/01/07 06:49:34;;;;;;;17.07;12.30;;;;;;;4.95;58.82;95715.41;5004639;28;20218;-68
2023/01/07 06:51:59;;;;;;;18.90;11.33;;;;;;;4.99;58.59;95716.88;5010846;28;20214;-69
2023/01/07 06:54:25;;;;;;;15.70;11.07;;;;;;;4.95;58.84;95721.47;5000778;28;20209;-69
2023/01/07 06:56:50;;;;;;;14.80;10.97;;;;;;;4.57;60.07;95727.38;5005363;28;20227;-67
2023/01/07 06:59:15;;;;;;;20.13;11.47;;;;;;;4.74;59.43;95728.88;5011542;28;20234;-69
2023/01/07 07:01:41;;;;;;;15.80;11.97;;;;;;;4.73;59.63;95724.63;5008926;28;20219;-68
2023/01/07 07:04:06;;;;;;;16.83;11.63;;;;;;;4.78;59.49;95724.31;5007154;28;20205;-68
2023/01/07 07:06:32;;;;;;;16.43;11.73;;;;;;;4.90;59.08;95725.31;5005599;28;20180;-67
2023/01/07 07:08:57;;;;;;;17.43;11.80;;;;;;;5.02;59.08;95737.50;5004067;28;20224;-67
2023/01/07 07:11:22;;;;;;;16.43;10.63;;;;;;;5.07;58.40;95735.44;5002800;28;20235;-67
2023/01/07 07:13:48;;;;;;;17.83;11.03;;;;;;;5.21;57.85;95727.56;4991648;28;20241;-67
2023/01/07 07:16:13;;;;;;;14.93;10.50;;;;;;;5.08;57.83;95735.34;5020330;28;20233;-67
2023/01/07 07:18:39;;;;;;;16.17;11.67;;;;;;;5.24;57.62;95737.78;5009935;28;20183;-66
2023/01/07 07:21:04;;;;;;;13.67;10.77;;;;;;;5.35;57.22;95731.03;5010813;28;20219;-67
2023/01/07 07:23:30;;;;;;;16.67;10.73;;;;;;;5.16;57.91;95737.47;5010232;28;20210;-67
2023/01/07 07:25:55;;;;;;;19.57;11.77;;;;;;;5.29;57.76;95733.13;5012601;28;20226;-67
2023/01/07 07:28:21;;;;;;;16.37;10.57;;;;;;;5.47;57.66;95732.81;5009613;28;20235;-67
2023/01/07 07:30:46;;;;;;;15.17;9.97;;;;;;;5.64;56.68;95734.25;5004657;28;20228;-67
2023/01/07 07:33:13;;;;;;;15.60;10.60;;;;;;;5.03;58.91;95741.81;4999894;28;20258;-68
2023/01/07 07:35:39;;;;;;;16.33;10.73;;;;;;;5.40;57.92;95727.19;4981566;28;20216;-68
2023/01/07 07:38:05;;;;;;;15.23;11.47;;;;;;;5.60;56.99;95730.22;4985758;28;20389;-67
2023/01/07 07:40:30;;;;;;;18.07;11.07;;;;;;;5.70;56.80;95723.44;4992974;28;20249;-67
2023/01/07 07:42:58;;;;;;;17.97;11.43;;;;;;;5.67;56.60;95724.47;5020533;28;20211;-68
2023/01/07 07:45:24;;;;;;;16.83;11.30;;;;;;;5.78;56.26;95728.13;5013390;28;20189;-66
2023/01/07 07:47:49;;;;;;;16.23;12.40;;;;;;;5.84;56.63;95723.31;5019432;28;20250;-67
2023/01/07 07:50:15;;;;;;;18.43;11.70;;;;;;;5.83;56.87;95726.03;5006484;28;20219;-67
2023/01/07 07:52:40;;;;;;;15.77;10.67;;;;;;;5.75;57.23;95731.78;5007084;28;20306;-66
2023/01/07 07:55:06;;;;;;;17.53;11.50;;;;;;;5.55;57.55;95727.91;5012346;28;20214;-65
2023/01/07 07:57:32;;;;;;;15.87;11.10;;;;;;;5.77;57.02;95731.66;5012406;28;20213;-66
2023/01/07 07:59:57;;;;;;;15.70;11.47;;;;;;;5.47;57.93;95723.19;5029177;28;20234;-65
2023/01/07 08:02:22;;;;;;;15.40;10.87;;;;;;;5.69;57.69;95737.41;5006458;28;20272;-65
2023/01/07 08:04:48;;;;;;;16.17;12.37;;;;;;;5.94;56.98;95732.22;5007250;28;20227;-66
2023/01/07 08:07:14;;;;;;;17.03;11.33;;;;;;;6.02;56.70;95723.84;5009992;28;20222;-66
2023/01/07 08:09:39;;;;;;;15.23;11.13;;;;;;;6.07;56.16;95729.59;5013023;28;20191;-66
2023/01/07 08:12:05;;;;;;;13.93;10.47;;;;;;;6.18;56.00;95729.69;5009511;28;20223;-66
2023/01/07 08:14:30;;;;;;;18.93;11.07;;;;;;;6.46;55.54;95730.34;5010210;28;20238;-66
2023/01/07 08:16:56;;;;;;;14.80;10.37;;;;;;;6.10;56.79;95731.16;5024311;28;20239;-66
2023/01/07 08:19:21;;;;;;;13.50;10.53;;;;;;;6.18;56.37;95729.69;5003923;28;20223;-66
2023/01/07 08:21:48;;;;;;;16.10;9.73;;;;;;;6.11;56.79;95725.81;5016744;28;20188;-66
2023/01/07 08:24:14;;;;;;;20.00;12.23;;;;;;;6.37;55.53;95739.66;5003547;28;20223;-66
2023/01/07 08:26:40;;;;;;;17.50;13.73;;;;;;;6.20;55.67;95734.78;5003322;28;20335;-65
2023/01/07 08:29:05;;;;;;;22.10;13.30;;;;;;;6.38;55.36;95730.03;5000988;28;20219;-65
2023/01/07 08:31:31;;;;;;;16.60;12.23;;;;;;;6.20;55.97;95732.16;5013277;28;20250;-65
2023/01/07 08:33:56;;;;;;;18.93;13.20;;;;;;;6.23;56.67;95723.28;5008194;28;20203;-65
2023/01/07 08:36:48;;;;;;;14.70;10.97;;;;;;;6.45;56.13;95731.28;5009843;28;20573;-65
2023/01/07 08:39:14;;;;;;;17.43;12.20;;;;;;;6.66;55.66;95734.16;5006525;28;20222;-65
2023/01/07 08:41:39;;;;;;;15.73;10.43;;;;;;;6.79;54.30;95718.38;5006118;28;20263;-65
2023/01/07 08:44:05;;;;;;;14.07;10.83;;;;;;;6.50;55.15;95731.78;5021066;28;20211;-65
2023/01/07 08:46:30;;;;;;;18.80;10.30;;;;;;;6.42;55.56;95720.22;5011904;28;20215;-65
2023/01/07 08:48:56;;;;;;;18.30;12.20;;;;;;;6.43;55.66;95720.09;5013800;28;20182;-65
2023/01/07 08:51:21;;;;;;;14.40;9.77;;;;;;;6.56;55.17;95715.66;5012307;28;20179;-65
2023/01/07 08:53:47;;;;;;;13.13;9.67;;;;;;;6.60;55.12;95722.34;5004507;28;20376;-65
2023/01/07 08:56:13;;;;;;;16.37;10.03;;;;;;;6.64;55.33;95720.34;5009745;28;20281;-65
2023/01/07 08:58:38;;;;;;;12.50;9.03;;;;;;;6.75;54.83;95716.97;5005420;28;20305;-65
2023/01/07 09:01:06;;;;;;;11.97;8.63;;;;;;;6.85;54.56;95715.34;5017647;28;20187;-65
2023/01/07 09:03:32;;;;;;;11.57;8.70;;;;;;;6.71;54.62;95715.50;5021521;28;20191;-65
2023/01/07 09:05:57;;;;;;;11.33;8.63;;;;;;;6.74;55.14;95707.47;5024661;28;20227;-65
2023/01/07 09:08:23;;;;;;;13.87;9.40;;;;;;;6.85;54.79;95699.66;5003151;28;20231;-65
2023/01/07 09:10:48;;;;;;;11.17;8.43;;;;;;;7.11;53.80;95696.91;5002960;28;20220;-65
2023/01/07 09:13:14;;;;;;;12.67;8.40;;;;;;;7.16;53.78;95692.16;4992979;28;20238;-65
2023/01/07 09:15:39;;;;;;;12.70;9.47;;;;;;;7.27;53.56;95693.03;4992181;28;20211;-65
2023/01/07 09:18:05;;;;;;;13.10;8.87;;;;;;;7.30;53.41;95691.97;5008068;28;20227;-65
2023/01/07 09:20:31;;;;;;;12.03;8.73;;;;;;;7.53;52.46;95692.00;5023994;28;20233;-65
2023/01/07 09:22:57;;;;;;;15.33;9.30;;;;;;;7.33;53.12;95683.06;5027889;28;20234;-66
2023/01/07 09:25:22;;;;;;;13.17;9.60;;;;;;;7.47;53.58;95680.22;5011499;28;20226;-64
2023/01/07 09:27:48;;;;;;;14.00;9.63;;;;;;;7.69;52.40;95685.47;5025242;28;20191;-64
2023/01/07 09:30:13;;;;;;;19.27;12.57;;;;;;;7.66;52.64;95677.03;5000407;28;20242;-65
2023/01/07 09:32:41;;;;;;;18.63;13.43;;;;;;;7.73;52.51;95671.22;5006224;28;20298;-65
2023/01/07 09:35:07;;;;;;;20.03;14.53;;;;;;;8.02;51.45;95664.66;5000877;28;20235;-65
2023/01/07 09:37:32;;;;;;;18.77;14.07;;;;;;;7.88;51.92;95663.13;4998307;28;20261;-65
2023/01/07 09:39:59;;;;;;;18.37;13.47;;;;;;;7.78;52.27;95664.78;5009476;28;20202;-65
2023/01/07 09:43:09;;;;;;;24.27;17.27;;;;;;;7.87;51.87;95661.47;5011977;28;20244;-65
2023/01/07 09:45:39;;;;;;;26.30;17.87;;;;;;;7.84;51.47;95644.22;4953291;28;20224;-66
2023/01/07 09:48:25;;;;;;;26.50;17.47;;;;;;;7.89;51.87;95644.69;4958063;28;20415;-66
2023/01/07 09:51:10;;;;;;;19.77;16.23;;;;;;;8.16;51.16;95641.69;4953091;28;20224;-66
2023/01/07 09:53:47;;;;;;;22.73;16.77;;;;;;;8.16;50.90;95635.59;4967390;28;20338;-66
2023/01/07 09:56:23;;;;;;;26.10;16.70;;;;;;;8.15;50.82;95633.94;4951127;28;20232;-66
2023/01/07 09:58:48;;;;;;;20.87;17.27;;;;;;;8.19;51.09;95619.66;4947620;28;20237;-66
2023/01/07 10:01:41;;;;;;;24.97;17.27;;;;;;;8.39;51.10;95618.06;4944938;28;20247;-66
2023/01/07 10:04:27;;;;;;;23.90;17.70;;;;;;;8.40;50.13;95614.50;4954572;28;20195;-66
2023/01/07 10:07:18;;;;;;;24.53;17.47;;;;;;;8.52;50.14;95615.28;4951418;28;20192;-66
2023/01/07 10:09:53;;;;;;;24.40;16.17;;;;;;;8.70;49.76;95605.09;4953264;28;20213;-65
2023/01/07 10:12:33;;;;;;;22.13;16.77;;;;;;;8.71;49.94;95597.09;4967939;28;20228;-65
2023/01/07 10:15:04;;;;;;;21.87;17.23;;;;;;;8.90;49.92;95600.81;4966828;28;20232;-65
2023/01/07 10:17:48;;;;;;;22.27;17.13;;;;;;;9.09;50.14;95594.88;4951638;28;20224;-65
2023/01/07 10:20:25;;;;;;;19.60;16.40;;;;;;;9.53;47.82;95585.06;4976618;28;20234;-65
2023/01/07 10:23:03;;;;;;;23.80;16.57;;;;;;;9.19;48.61;95586.09;4999957;28;20254;-65
2023/01/07 10:25:34;;;;;;;19.60;14.80;;;;;;;9.14;48.60;95582.22;5012244;28;20231;-65
2023/01/07 10:28:09;;;;;;;20.03;15.47;;;;;;;9.21;48.76;95578.94;5021395;28;20294;-66
2023/01/07 10:30:41;;;;;;;25.50;15.60;;;;;;;9.12;48.93;95581.53;5005413;28;20217;-66
2023/01/07 10:33:18;;;;;;;19.97;15.63;;;;;;;9.14;49.01;95569.94;5015614;28;20223;-66
2023/01/07 10:35:46;;;;;;;17.97;14.90;;;;;;;9.28;48.55;95553.84;5011483;28;20222;-66
2023/01/07 10:38:18;;;;;;;19.50;14.30;;;;;;;9.44;48.34;95563.88;5004942;28;20227;-66
2023/01/07 10:40:53;;;;;;;19.80;14.83;;;;;;;9.60;48.55;95560.78;5003011;28;20233;-66
2023/01/07 10:43:50;;;;;;;18.73;14.90;;;;;;;9.74;48.01;95554.31;5019957;28;20245;-65
2023/01/07 10:46:32;;;;;;;19.50;13.70;;;;;;;9.87;47.42;95541.78;5021092;28;20237;-65
2023/01/07 10:49:30;;;;;;;16.57;14.43;;;;;;;10.00;47.19;95531.03;5004815;28;20199;-66
2023/01/07 10:52:10;;;;;;;20.67;14.50;;;;;;;10.15;47.17;95544.59;4966281;28;20341;-66
2023/01/07 10:54:45;;;;;;;20.07;14.10;;;;;;;10.32;46.48;95530.81;4969061;28;20207;-66
2023/01/07 10:57:23;;;;;;;18.80;13.97;;;;;;;10.38;46.64;95532.06;4950837;28;20267;-66
2023/01/07 10:59:51;;;;;;;18.57;14.53;;;;;;;10.56;46.10;95530.41;4951270;28;20235;-66
2023/01/07 11:02:19;;;;;;;14.83;11.90;;;;;;;10.61;46.00;95529.97;4951816;28;20228;-66
2023/01/07 11:04:45;;;;;;;16.67;12.13;;;;;;;10.80;45.82;95519.44;4966094;28;20319;-66
2023/01/07 11:07:32;;;;;;;15.73;11.87;;;;;;;10.73;45.51;95514.88;4957124;28;20286;-66
2023/01/07 11:10:03;;;;;;;15.63;12.17;;;;;;;10.75;45.90;95512.94;4954300;28;20208;-66
2023/01/07 11:13:20;;;;;;;12.73;9.37;;;;;;;10.82;45.50;95503.50;4952441;28;20208;-66
2023/01/07 11:15:56;;;;;;;12.50;8.53;;;;;;;10.97;45.63;95504.72;4910721;29;20226;-65
2023/01/07 11:18:32;;;;;;;9.13;6.50;;;;;;;11.08;45.67;95505.53;4909619;29;20226;-65
2023/01/07 11:20:58;;;;;;;9.77;7.30;;;;;;;11.13;45.70;95501.50;4894150;29;20233;-65
2023/01/07 11:23:32;;;;;;;8.93;6.47;;;;;;;11.08;45.48;95495.84;4909124;29;20317;-64
2023/01/07 11:26:09;;;;;;;9.43;6.50;;;;;;;11.27;44.97;95487.03;4909859;29;20230;-65
2023/01/07 11:28:36;;;;;;;10.67;7.60;;;;;;;11.44;44.96;95488.94;4927197;28;20267;-66
2023/01/07 11:31:01;;;;;;;10.03;6.97;;;;;;;11.62;43.88;95483.69;4962472;28;20192;-67
2023/01/07 11:33:49;;;;;;;10.87;7.80;;;;;;;11.75;43.93;95485.16;4959925;28;20221;-67
2023/01/07 11:36:15;;;;;;;10.20;7.70;;;;;;;11.75;43.37;95483.34;4945920;28;20232;-65
2023/01/07 11:38:40;;;;;;;9.50;7.93;;;;;;;11.88;43.35;95475.97;4944048;28;20255;-65
2023/01/07 11:41:19;;;;;;;8.23;7.37;;;;;;;12.05;43.82;95474.31;4942078;28;20254;-66
2023/01/07 11:43:51;;;;;;;10.67;7.40;;;;;;;12.30;42.59;95458.75;4946128;28;20286;-66
2023/01/07 11:46:19;;;;;;;7.85;6.28;;;;;;;12.10;42.65;95455.41;4941904;28;20240;-66